Time;durP1;ratioP1;P1;durP2;ratioP2;P2;SDS_P1;SDS_P2;PMS_P1;PMS_P2;Temp;Humidity;BMP_temperature;BMP_pressure;BME280_temperature;BME280_humidity;BME280_pressure;Samples;Min_cycle;Max_cycle;Signal;HPM_P1;HPM_P2
2021/07/20 06:57:53;;;;;;;0.22;0.22;;;18.70;99.90;;;;;;4879664;29;20968;-94
2021/07/20 07:00:21;;;;;;;1.20;0.40;;;18.50;99.90;;;;;;4876125;29;20452;-96
2021/07/20 07:02:54;;;;;;;0.73;0.60;;;18.40;99.90;;;;;;4890096;29;20477;-94
2021/07/20 07:05:25;;;;;;;0.77;0.20;;;18.20;99.90;;;;;;4886732;29;20452;-96
2021/07/20 07:07:52;;;;;;;0.40;0.40;;;17.90;99.90;;;;;;4868331;29;20965;-95
2021/07/20 07:10:21;;;;;;;1.70;0.50;;;17.80;99.90;;;;;;4883228;29;20511;-96
2021/07/20 07:12:53;;;;;;;0.45;0.45;;;17.70;99.90;;;;;;4868184;29;20445;-96
2021/07/20 07:15:21;;;;;;;0.53;0.53;;;18.00;99.90;;;;;;4884643;29;20452;-96
2021/07/20 07:17:49;;;;;;;0.55;0.40;;;18.10;99.90;;;;;;4868064;29;20452;-94
2021/07/20 07:20:20;;;;;;;9.70;0.40;;;18.30;99.90;;;;;;4883039;29;20454;-95
2021/07/20 07:22:48;;;;;;;0.30;0.30;;;18.20;99.90;;;;;;4868404;29;20436;-95
2021/07/20 07:49:34;;;;;;;1.70;0.98;;;16.90;99.90;;;;;;5597312;23;20448;-94
2021/07/20 07:52:14;;;;;;;0.40;0.40;;;16.70;99.90;;;;;;4874096;29;20452;-94
2021/07/20 07:54:46;;;;;;;0.30;0.30;;;16.60;99.90;;;;;;4867854;29;20448;-96
2021/07/20 07:57:22;;;;;;;0.28;0.28;;;16.60;99.90;;;;;;4868743;29;20438;-96
2021/07/20 08:02:48;;;;;;;1.17;1.00;;;17.30;99.90;;;;;;5903465;23;21657;-96
2021/07/20 08:11:47;;;;;;;1.25;0.68;;;17.50;99.90;;;;;;4890028;29;20518;-94
2021/07/20 08:14:29;;;;;;;0.30;0.30;;;17.60;99.90;;;;;;4877229;29;20472;-96
2021/07/20 08:18:02;;;;;;;0.20;0.20;;;17.60;99.90;;;;;;4877368;29;20424;-94
2021/07/20 08:21:04;;;;;;;0.20;0.20;;;17.70;99.90;;;;;;4854367;29;20452;-93
2021/07/20 08:34:24;;;;;;;0.25;0.25;;;17.90;99.90;;;;;;5906621;23;20667;-93
2021/07/20 08:36:56;;;;;;;0.20;0.20;;;17.90;99.90;;;;;;4865993;29;20448;-94
2021/07/20 08:39:25;;;;;;;15.00;9.30;;;17.60;99.90;;;;;;4866325;29;20444;-93
2021/07/20 08:42:43;;;;;;;16.55;9.50;;;17.50;99.90;;;;;;4863426;29;20438;-93
2021/07/20 08:45:19;;;;;;;18.67;10.27;;;17.30;99.90;;;;;;4845131;29;20836;-93
2021/07/20 08:48:07;;;;;;;19.95;10.20;;;17.20;99.90;;;;;;4848145;29;20434;-92
2021/07/20 08:50:45;;;;;;;21.40;10.23;;;17.00;99.90;;;;;;4848174;29;20426;-93
2021/07/20 08:53:51;;;;;;;18.67;10.63;;;16.90;99.90;;;;;;4847274;29;20438;-93
2021/07/20 08:56:22;;;;;;;19.73;10.43;;;16.90;99.90;;;;;;4809354;29;20446;-93
2021/07/20 08:59:07;;;;;;;13.67;9.07;;;17.10;99.90;;;;;;4809762;29;20445;-93
2021/07/20 09:01:46;;;;;;;16.02;9.23;;;17.60;99.90;;;;;;4809867;29;20466;-94
2021/07/20 09:04:44;;;;;;;16.73;9.30;;;17.80;99.90;;;;;;4810794;29;20929;-93
2021/07/20 09:07:22;;;;;;;17.70;9.48;;;18.00;99.90;;;;;;4820269;29;20476;-96
2021/07/20 09:09:55;;;;;;;15.60;9.18;;;18.30;99.90;;;;;;4809963;29;20498;-96
2021/07/20 09:12:30;;;;;;;15.13;9.20;;;18.40;99.90;;;;;;4809920;29;20515;-96
2021/07/20 09:15:14;;;;;;;14.00;8.65;;;18.10;99.90;;;;;;4810149;29;21066;-96
2021/07/20 09:18:04;;;;;;;16.77;9.60;;;17.70;99.90;;;;;;4811381;29;20841;-96
2021/07/20 09:20:36;;;;;;;15.88;9.55;;;17.80;99.90;;;;;;4810363;29;20536;-96
2021/07/20 09:23:14;;;;;;;18.45;10.00;;;17.80;99.90;;;;;;4809546;29;20481;-96
2021/07/20 09:26:08;;;;;;;15.30;8.82;;;18.40;99.90;;;;;;4810087;29;20442;-96
2021/07/20 09:28:45;;;;;;;15.55;9.25;;;19.10;99.90;;;;;;4810692;29;20446;-96
2021/07/20 09:31:30;;;;;;;16.77;9.38;;;19.60;99.90;;;;;;4818581;29;20438;-96
2021/07/20 09:34:07;;;;;;;16.13;9.37;;;20.10;99.90;;;;;;4849128;29;20441;-94
2021/07/20 09:37:11;;;;;;;17.17;9.82;;;20.50;99.90;;;;;;4847157;29;20483;-96
2021/07/20 09:39:54;;;;;;;16.83;9.77;;;20.20;99.90;;;;;;4840746;29;20450;-96
2021/07/20 09:42:42;;;;;;;15.10;9.47;;;20.20;99.90;;;;;;4847780;29;20771;-96
2021/07/20 09:45:13;;;;;;;15.90;9.70;;;20.70;99.90;;;;;;4848697;29;20453;-96
2021/07/20 09:48:23;;;;;;;14.48;10.00;;;21.10;99.90;;;;;;4847040;29;20441;-96
2021/07/20 09:51:19;;;;;;;16.37;10.57;;;20.80;99.90;;;;;;4848018;29;20441;-95
2021/07/20 09:54:02;;;;;;;19.50;9.23;;;20.20;99.90;;;;;;4847575;29;20445;-96
2021/07/20 09:56:57;;;;;;;15.60;9.57;;;20.10;99.90;;;;;;4846544;29;20431;-96
2021/07/20 09:59:46;;;;;;;14.13;9.13;;;20.20;99.90;;;;;;4846917;29;20453;-96
2021/07/20 10:02:40;;;;;;;14.45;9.32;;;20.30;99.90;;;;;;4848174;29;20442;-96
2021/07/20 10:05:41;;;;;;;15.07;9.50;;;20.00;99.90;;;;;;4833083;29;20938;-95
2021/07/20 10:08:20;;;;;;;15.93;10.00;;;20.00;99.90;;;;;;4847177;29;20438;-96
2021/07/20 10:11:15;;;;;;;13.82;9.90;;;20.20;99.90;;;;;;4850677;29;20457;-96
2021/07/20 10:14:06;;;;;;;17.73;10.45;;;20.40;99.90;;;;;;4851225;29;20478;-95
2021/07/20 10:16:57;;;;;;;14.43;9.48;;;20.50;99.90;;;;;;4854848;29;20446;-96
2021/07/20 10:19:43;;;;;;;14.75;9.43;;;20.20;99.90;;;;;;4850102;29;20453;-96
2021/07/20 10:22:13;;;;;;;15.90;9.80;;;19.90;99.90;;;;;;4847861;29;20501;-94
2021/07/20 10:24:52;;;;;;;18.35;10.52;;;19.60;99.90;;;;;;4863388;29;20434;-96
2021/07/20 10:27:45;;;;;;;15.68;10.20;;;19.60;99.90;;;;;;4866751;29;20414;-96
2021/07/20 10:30:15;;;;;;;14.50;9.93;;;19.60;99.90;;;;;;4849396;29;20436;-96
2021/07/20 10:32:57;;;;;;;17.30;11.20;;;19.50;99.90;;;;;;4848063;29;20442;-96
2021/07/20 10:35:33;;;;;;;13.07;8.50;;;19.70;99.90;;;;;;4846828;29;21007;-96
2021/07/20 10:38:05;;;;;;;14.07;8.60;;;19.70;99.90;;;;;;4847281;29;20438;-94
2021/07/20 10:40:33;;;;;;;16.98;10.57;;;19.70;99.90;;;;;;4845636;29;20442;-95
2021/07/20 10:43:20;;;;;;;18.33;9.52;;;19.50;99.90;;;;;;4846036;29;20438;-95
2021/07/20 10:45:49;;;;;;;16.27;10.63;;;19.30;99.90;;;;;;4845719;29;20782;-95
2021/07/20 10:48:19;;;;;;;17.63;10.18;;;19.10;99.90;;;;;;4845414;29;20524;-95
2021/07/20 10:50:54;;;;;;;16.73;10.45;;;19.40;99.90;;;;;;4846112;29;20531;-93
2021/07/20 10:53:31;;;;;;;16.73;10.38;;;19.60;99.90;;;;;;4845859;29;20962;-93
2021/07/20 10:56:04;;;;;;;15.35;9.43;;;20.00;99.90;;;;;;4847658;29;20458;-96
2021/07/20 10:58:43;;;;;;;16.63;9.90;;;20.10;99.90;;;;;;4849414;29;20430;-96
2021/07/20 11:01:23;;;;;;;15.47;10.83;;;20.10;99.90;;;;;;4863580;29;20514;-96
2021/07/20 11:04:08;;;;;;;17.30;9.93;;;20.30;99.90;;;;;;4847175;29;20505;-95
2021/07/20 11:06:38;;;;;;;16.08;9.70;;;20.30;99.90;;;;;;4846506;29;20438;-96
2021/07/20 11:09:12;;;;;;;20.65;10.43;;;20.10;99.90;;;;;;4845853;29;20973;-94
2021/07/20 11:11:48;;;;;;;16.65;10.05;;;20.10;99.90;;;;;;4847231;29;20441;-94
2021/07/20 11:14:18;;;;;;;14.88;9.55;;;20.10;99.90;;;;;;4849388;29;20442;-96
2021/07/20 11:16:45;;;;;;;17.52;10.23;;;19.90;99.90;;;;;;4846628;29;20549;-96
2021/07/20 11:19:13;;;;;;;14.23;9.80;;;20.10;99.90;;;;;;4847520;29;20438;-95
2021/07/20 11:21:43;;;;;;;17.33;9.95;;;20.30;99.90;;;;;;4846971;29;20559;-94
2021/07/20 11:24:15;;;;;;;18.35;9.75;;;20.20;99.90;;;;;;4831721;29;20445;-94
2021/07/20 11:26:43;;;;;;;13.63;9.60;;;20.30;99.90;;;;;;4844950;29;20534;-94
2021/07/20 13:07:32;;;;;;;17.90;12.00;;;17.60;99.90;;;;;;3913375;23;20595;-95
2021/07/20 13:10:01;;;;;;;17.60;11.35;;;17.50;99.90;;;;;;4849943;29;20446;-96
2021/07/20 13:12:57;;;;;;;14.63;10.73;;;17.60;99.90;;;;;;4843985;23;20452;-96
2021/07/20 13:30:30;;;;;;;17.37;10.53;;;19.60;99.90;;;;;;5545948;23;20446;-96
2021/07/20 13:33:15;;;;;;;17.03;10.80;;;20.40;99.90;;;;;;4863882;29;20446;-96
2021/07/20 13:35:55;;;;;;;17.70;11.20;;;21.20;99.90;;;;;;4866860;29;20438;-96
2021/07/20 13:38:34;;;;;;;17.10;10.75;;;22.20;99.90;;;;;;4864586;29;20434;-96
2021/07/20 13:41:51;;;;;;;18.52;11.00;;;23.50;99.90;;;;;;4865956;29;20522;-96
2021/07/20 13:50:32;;;;;;;17.08;11.00;;;25.50;99.90;;;;;;4993835;23;20430;-91
2021/07/20 13:53:06;;;;;;;18.90;11.27;;;25.20;99.90;;;;;;4881055;29;20436;-91
2021/07/20 13:55:38;;;;;;;16.80;11.37;;;24.20;99.20;;;;;;4876080;29;20435;-92
2021/07/20 13:58:05;;;;;;;33.45;12.85;;;23.10;99.90;;;;;;4883430;29;20438;-93
2021/07/20 14:00:34;;;;;;;19.53;11.70;;;22.30;99.90;;;;;;4883731;29;20447;-92
2021/07/20 14:03:02;;;;;;;19.38;13.18;;;21.70;99.90;;;;;;4885593;29;20799;-92
2021/07/20 14:05:31;;;;;;;15.10;10.65;;;21.30;99.90;;;;;;4884146;29;20434;-92
2021/07/20 14:07:59;;;;;;;20.67;11.18;;;21.50;99.90;;;;;;4883182;29;20943;-93
2021/07/20 14:10:27;;;;;;;17.70;10.73;;;22.50;99.90;;;;;;4882637;29;20465;-94
2021/07/20 14:13:16;;;;;;;16.37;11.03;;;22.80;99.90;;;;;;4885326;29;20494;-94
2021/07/20 14:16:00;;;;;;;20.83;11.32;;;22.70;99.90;;;;;;4880115;29;20441;-93
2021/07/20 14:18:45;;;;;;;15.88;11.00;;;22.60;99.90;;;;;;4893523;29;20490;-93
2021/07/20 14:21:30;;;;;;;18.73;11.65;;;21.70;99.90;;;;;;4857948;29;20877;-95
2021/07/20 14:24:06;;;;;;;19.42;11.82;;;21.00;99.90;;;;;;4888931;29;20434;-94
2021/07/20 14:26:47;;;;;;;17.55;10.88;;;20.40;99.90;;;;;;4887005;29;20435;-94
2021/07/20 14:29:30;;;;;;;19.48;11.50;;;19.80;99.90;;;;;;4888635;29;20438;-93
2021/07/20 14:32:08;;;;;;;17.92;11.48;;;19.60;99.90;;;;;;4884135;29;20485;-93
2021/07/20 14:34:54;;;;;;;18.17;11.95;;;19.30;99.90;;;;;;4883584;29;20514;-93
2021/07/20 14:40:32;;;;;;;17.13;10.93;;;19.10;99.90;;;;;;4889410;29;20453;-93
2021/07/20 14:43:07;;;;;;;19.67;11.68;;;19.50;99.90;;;;;;4866084;29;20496;-93
2021/07/20 14:45:35;;;;;;;16.83;11.27;;;19.70;99.90;;;;;;4864605;29;20773;-96
2021/07/20 14:48:05;;;;;;;19.08;12.40;;;19.50;99.90;;;;;;4864933;29;20459;-93
2021/07/20 14:50:49;;;;;;;20.58;11.98;;;19.60;99.90;;;;;;4884641;29;20784;-92
2021/07/20 14:53:25;;;;;;;18.85;12.18;;;19.50;99.90;;;;;;4882693;29;20431;-94
2021/07/20 14:55:55;;;;;;;18.23;11.45;;;19.30;99.90;;;;;;4883822;29;20423;-93
2021/07/20 14:58:26;;;;;;;20.17;12.57;;;19.10;99.90;;;;;;4883852;29;20435;-92
2021/07/20 15:00:57;;;;;;;15.80;11.40;;;19.10;99.90;;;;;;4882910;29;20453;-92
2021/07/20 15:03:44;;;;;;;17.13;11.57;;;19.70;99.90;;;;;;4884138;29;20487;-93
2021/07/20 15:06:28;;;;;;;18.47;11.43;;;20.70;99.90;;;;;;4883223;29;20438;-93
2021/07/20 15:08:59;;;;;;;18.67;11.00;;;22.20;99.90;;;;;;4887239;29;20431;-96
2021/07/20 15:11:32;;;;;;;20.05;12.00;;;22.90;99.90;;;;;;4889648;29;20431;-94
2021/07/20 15:14:02;;;;;;;21.35;11.65;;;22.90;99.90;;;;;;4901222;23;20440;-93
2021/07/20 15:43:42;;;;;;;19.13;12.13;;;19.30;99.90;;;;;;4867667;29;20441;-94
2021/07/20 15:46:10;;;;;;;19.33;12.07;;;19.10;99.90;;;;;;4844768;29;20531;-94
2021/07/20 15:48:46;;;;;;;21.25;12.55;;;18.80;99.90;;;;;;4833414;29;20434;-90
2021/07/20 15:59:20;;;;;;;17.77;11.35;;;20.90;99.90;;;;;;5465606;23;20705;-94
2021/07/20 16:01:59;;;;;;;21.67;11.18;;;21.60;99.90;;;;;;4889950;29;20463;-96
2021/07/20 16:04:45;;;;;;;;;;;;;;;;;;;;;
2021/07/20 16:10:34;;;;;;;17.13;11.07;;;23.40;99.90;;;;;;4993733;23;20437;-96
2021/07/20 16:13:07;;;;;;;18.55;11.35;;;23.70;99.90;;;;;;4882040;29;20432;-95
2021/07/20 16:15:38;;;;;;;16.80;10.77;;;23.80;99.90;;;;;;4883330;29;20500;-94
2021/07/20 16:18:10;;;;;;;17.25;10.30;;;24.10;99.90;;;;;;4881902;29;20462;-96
2021/07/20 16:20:43;;;;;;;17.48;10.43;;;24.10;99.90;;;;;;4882799;29;20854;-96
2021/07/20 16:23:15;;;;;;;18.17;10.80;;;23.90;99.90;;;;;;4882973;29;20519;-96
2021/07/20 16:25:43;;;;;;;14.65;10.07;;;23.90;99.90;;;;;;4881282;29;20528;-94
2021/07/20 16:28:12;;;;;;;16.20;9.90;;;23.40;99.90;;;;;;4866898;29;20433;-95
2021/07/20 16:30:42;;;;;;;18.77;10.38;;;23.50;99.90;;;;;;4881728;29;20441;-95
2021/07/20 16:33:12;;;;;;;14.15;9.82;;;23.60;99.90;;;;;;4881720;29;20504;-95
2021/07/20 16:35:40;;;;;;;15.85;10.02;;;23.60;99.90;;;;;;4883424;29;20436;-96
2021/07/20 16:38:12;;;;;;;16.85;9.95;;;23.50;99.90;;;;;;4890112;29;20936;-95
2021/07/20 16:41:13;;;;;;;22.08;9.90;;;23.40;99.90;;;;;;4884546;23;20423;-93
2021/07/20 16:43:42;;;;;;;16.33;9.63;;;23.40;99.90;;;;;;4831880;29;20483;-95
2021/07/20 16:46:18;;;;;;;16.05;9.77;;;23.20;99.90;;;;;;4833139;29;20522;-95
2021/07/20 16:49:16;;;;;;;13.80;9.63;;;23.00;99.90;;;;;;4840012;29;20416;-95
2021/07/20 16:51:43;;;;;;;19.10;10.35;;;23.00;99.90;;;;;;4836445;29;20850;-96
2021/07/20 16:54:10;;;;;;;14.50;9.80;;;22.60;99.90;;;;;;4833383;29;20500;-90
2021/07/20 16:56:40;;;;;;;15.70;10.15;;;22.30;99.90;;;;;;4839923;29;20509;-96
2021/07/20 16:59:28;;;;;;;14.63;10.07;;;22.30;99.90;;;;;;4852692;29;20447;-93
2021/07/20 17:01:56;;;;;;;16.48;10.23;;;22.00;99.90;;;;;;4837888;29;20455;-96
2021/07/20 17:04:26;;;;;;;15.93;10.23;;;21.10;99.90;;;;;;4819458;29;20508;-90
2021/07/20 17:06:55;;;;;;;17.30;10.57;;;20.30;99.90;;;;;;4847432;29;20444;-92
2021/07/20 17:09:22;;;;;;;15.70;10.48;;;19.80;99.90;;;;;;4830818;29;20523;-96
2021/07/20 17:11:49;;;;;;;18.52;10.57;;;19.70;99.90;;;;;;4838706;29;20426;-94
2021/07/20 17:14:16;;;;;;;15.35;10.73;;;19.60;99.90;;;;;;4850379;29;20436;-95
2021/07/20 17:16:47;;;;;;;20.23;10.98;;;19.70;99.90;;;;;;4833501;29;20444;-95
2021/07/20 17:19:15;;;;;;;17.38;10.93;;;19.40;99.90;;;;;;4830986;29;20793;-95
2021/07/20 17:21:50;;;;;;;15.88;10.13;;;19.40;99.90;;;;;;4833220;29;20943;-93
2021/07/20 17:24:17;;;;;;;17.40;10.55;;;19.40;99.90;;;;;;4830995;29;20444;-94
2021/07/20 17:26:57;;;;;;;16.70;11.18;;;19.20;99.90;;;;;;4828406;29;20447;-93
2021/07/20 17:29:24;;;;;;;16.55;10.45;;;19.10;99.90;;;;;;4828970;29;20501;-92
2021/07/20 17:31:59;;;;;;;17.73;10.70;;;19.10;99.90;;;;;;4828755;29;20442;-93
2021/07/20 17:34:37;;;;;;;17.58;10.95;;;18.90;99.90;;;;;;4831850;29;20467;-96
2021/07/20 17:37:11;;;;;;;19.58;11.23;;;18.70;99.90;;;;;;4830541;29;20432;-94
2021/07/20 17:39:40;;;;;;;18.33;10.63;;;18.50;99.90;;;;;;4831193;29;20452;-94
2021/07/20 17:44:41;;;;;;;19.15;10.63;;;18.30;99.90;;;;;;4844912;29;20449;-95
2021/07/20 17:47:18;;;;;;;18.90;11.30;;;18.10;99.90;;;;;;4828640;29;20441;-94
2021/07/20 17:49:52;;;;;;;18.23;11.07;;;18.00;99.90;;;;;;4829106;29;20944;-96
2021/07/20 17:52:20;;;;;;;19.60;11.20;;;17.90;99.90;;;;;;4832027;29;20435;-93
2021/07/20 17:54:52;;;;;;;20.65;11.55;;;17.70;99.90;;;;;;4816447;29;20443;-93
2021/07/20 17:57:19;;;;;;;19.60;12.18;;;17.60;99.90;;;;;;4828804;29;20443;-91
2021/07/20 17:59:56;;;;;;;20.35;11.73;;;17.60;99.90;;;;;;4831390;29;20448;-96
2021/07/20 18:02:30;;;;;;;17.23;11.43;;;17.80;99.90;;;;;;4831006;29;20544;-94
2021/07/20 18:04:58;;;;;;;18.30;11.20;;;17.80;99.90;;;;;;4828115;29;20830;-95
2021/07/20 18:07:26;;;;;;;18.88;11.35;;;17.70;99.90;;;;;;4828558;29;20436;-95
2021/07/20 18:09:53;;;;;;;19.10;11.65;;;17.50;99.90;;;;;;4828584;29;20439;-94
2021/07/20 18:12:20;;;;;;;18.75;11.73;;;17.10;99.90;;;;;;4829372;29;20436;-92
2021/07/20 18:14:50;;;;;;;18.33;11.60;;;16.80;99.90;;;;;;4828418;29;20492;-91
2021/07/20 18:17:18;;;;;;;20.38;11.55;;;16.70;99.90;;;;;;4827963;29;20447;-96
2021/07/20 18:19:46;;;;;;;21.30;11.95;;;16.50;99.90;;;;;;4827802;29;20439;-93
2021/07/20 18:22:13;;;;;;;18.90;11.70;;;16.30;99.90;;;;;;4828582;29;20458;-90
2021/07/20 18:24:41;;;;;;;18.25;12.00;;;16.10;99.90;;;;;;4829099;29;20940;-91
2021/07/20 18:27:08;;;;;;;18.70;12.10;;;15.70;99.90;;;;;;4828235;29;20443;-95
2021/07/20 18:43:23;;;;;;;20.55;12.43;;;14.30;99.90;;;;;;3862383;23;20700;-94
2021/07/20 18:45:59;;;;;;;23.00;12.52;;;14.10;99.90;;;;;;4812254;29;20456;-96
2021/07/20 18:55:32;;;;;;;21.25;12.55;;;13.60;99.90;;;;;;5464025;23;20416;-95
2021/07/20 19:01:00;;;;;;;19.55;12.82;;;13.50;99.90;;;;;;5071295;23;20450;-96
2021/07/20 19:07:21;;;;;;;22.05;13.48;;;13.40;99.90;;;;;;5079850;23;20424;31
2021/07/20 19:12:48;;;;;;;26.75;14.63;;;13.20;99.90;;;;;;5146527;23;20525;-94
2021/07/20 19:18:22;;;;;;;24.20;13.65;;;13.00;99.90;;;;;;4876870;29;20473;-96
2021/07/20 19:21:26;;;;;;;23.83;13.88;;;12.90;99.90;;;;;;5028595;23;20495;-96
2021/07/20 19:27:18;;;;;;;25.65;14.75;;;12.60;99.90;;;;;;4905041;23;20471;-96
2021/07/20 19:30:28;;;;;;;24.38;13.95;;;12.50;99.90;;;;;;4908646;23;20527;-96
2021/07/20 19:33:31;;;;;;;23.67;13.25;;;12.40;99.90;;;;;;4847673;29;20508;-96
2021/07/20 19:40:31;;;;;;;23.55;14.02;;;12.30;99.90;;;;;;4940375;23;21192;-96
2021/07/20 19:47:01;;;;;;;27.10;14.48;;;12.10;99.90;;;;;;5029226;23;20433;-96
2021/07/20 19:50:43;;;;;;;;;;;;;;;;;;;;;
2021/07/20 20:02:24;;;;;;;21.98;15.00;;;11.90;99.90;;;;;;5244121;23;20457;-96
2021/07/20 20:04:55;;;;;;;23.63;14.60;;;11.90;99.90;;;;;;4932178;23;20468;-96
2021/07/20 20:07:28;;;;;;;25.73;15.13;;;11.80;99.90;;;;;;5073826;23;20437;-96
2021/07/20 20:10:41;;;;;;;23.73;14.43;;;11.80;99.90;;;;;;4918261;29;20410;-96
2021/07/20 20:16:17;;;;;;;24.40;14.00;;;11.80;99.90;;;;;;5017790;23;20458;-96
2021/07/20 20:18:57;;;;;;;24.23;13.90;;;11.80;99.90;;;;;;4914883;23;20448;-95
2021/07/20 20:22:17;;;;;;;22.40;14.10;;;11.80;99.90;;;;;;4913942;23;20456;-96
2021/07/20 20:24:56;;;;;;;24.27;14.30;;;11.80;99.90;;;;;;4043610;23;20469;-96
2021/07/20 23:13:22;;;;;;;18.60;11.70;;;11.80;99.90;;;;;;5889437;23;20389;-96
2021/07/20 23:15:56;;;;;;;18.02;11.68;;;11.80;99.90;;;;;;4899877;23;20451;-95
2021/07/20 23:18:31;;;;;;;18.20;12.17;;;11.80;99.90;;;;;;4896566;23;20508;-95
2021/07/20 23:21:27;;;;;;;22.97;13.30;;;11.70;99.90;;;;;;4889229;23;20945;-95
2021/07/20 23:24:00;;;;;;;19.67;12.60;;;11.70;99.90;;;;;;4889253;29;20425;-95
2021/07/20 23:26:41;;;;;;;21.65;13.07;;;11.80;99.90;;;;;;4931282;23;20469;-96
2021/07/20 23:29:44;;;;;;;23.52;12.60;;;11.80;99.90;;;;;;4895225;29;20434;-96
